Time;durP1;ratioP1;P1;durP2;ratioP2;P2;SDS_P1;SDS_P2;PMS_P1;PMS_P2;Temp;Humidity;BMP_temperature;BMP_pressure;BME280_temperature;BME280_humidity;BME280_pressure;Samples;Min_cycle;Max_cycle;Signal;HPM_P1;HPM_P2
2021/09/14 00:01:19;;;;;;;20.77;8.13;;;;;;;11.53;100.00;-19466.97;5018665;28;20029;-67
2021/09/14 00:03:44;;;;;;;19.13;8.30;;;;;;;11.57;100.00;-19468.00;5018297;28;20435;-67
2021/09/14 00:06:10;;;;;;;20.47;8.10;;;;;;;11.54;100.00;-19467.22;5020525;28;20112;-67
2021/09/14 00:08:35;;;;;;;23.57;8.20;;;;;;;11.53;100.00;-19467.09;5019038;28;20048;-67
2021/09/14 00:11:01;;;;;;;18.77;7.23;;;;;;;11.56;100.00;-19467.88;5018925;28;20056;-67
2021/09/14 00:13:26;;;;;;;20.87;7.93;;;;;;;11.56;100.00;-19467.88;5019027;28;20033;-67
2021/09/14 00:15:52;;;;;;;20.70;7.67;;;;;;;11.56;100.00;-19467.88;5018640;28;20278;-67
2021/09/14 00:18:17;;;;;;;16.37;7.37;;;;;;;11.60;100.00;-19468.94;5018753;28;20580;-67
2021/09/14 00:20:43;;;;;;;23.83;7.63;;;;;;;11.54;100.00;-19467.22;5018110;28;20719;-67
2021/09/14 00:23:08;;;;;;;15.67;7.13;;;;;;;11.53;100.00;-19467.09;5018365;28;20029;-67
2021/09/14 00:25:35;;;;;;;23.90;7.73;;;;;;;11.44;100.00;-19464.72;5018678;28;20030;-67
2021/09/14 00:28:02;;;;;;;18.67;7.30;;;;;;;11.36;100.00;-19462.63;5018538;28;20446;-67
2021/09/14 00:30:27;;;;;;;27.23;8.20;;;;;;;11.35;100.00;-19462.34;5019457;28;20029;-67
2021/09/14 00:32:53;;;;;;;22.60;8.13;;;;;;;11.27;100.00;-19460.38;5017409;28;20112;-67
2021/09/14 00:35:18;;;;;;;22.13;8.23;;;;;;;11.22;100.00;-19458.94;5023158;28;20075;-67
2021/09/14 00:37:44;;;;;;;25.33;8.67;;;;;;;11.16;100.00;-19457.50;5022814;28;20033;-67
2021/09/14 00:40:11;;;;;;;23.43;8.43;;;;;;;11.09;100.00;-19455.78;5022937;28;20028;-67
2021/09/14 00:42:36;;;;;;;24.30;8.37;;;;;;;11.04;100.00;-19454.47;5022264;28;20030;-67
2021/09/14 00:45:06;;;;;;;27.47;9.23;;;;;;;11.04;100.00;-19454.47;5022810;28;20498;-67
2021/09/14 00:47:32;;;;;;;31.60;8.93;;;;;;;11.03;100.00;-19454.06;5021068;28;20113;-67
2021/09/14 00:49:59;;;;;;;31.87;10.17;;;;;;;11.01;100.00;-19453.53;5023393;28;20453;-67
2021/09/14 00:52:24;;;;;;;31.33;9.70;;;;;;;11.04;100.00;-19454.47;5010206;28;20119;-67
2021/09/14 00:54:50;;;;;;;33.73;9.77;;;;;;;11.07;100.00;-19455.25;5022194;28;20022;-67
2021/09/14 00:57:16;;;;;;;40.47;11.10;;;;;;;11.03;100.00;-19454.22;5022115;28;20021;-67
2021/09/14 00:59:42;;;;;;;37.07;10.93;;;;;;;11.06;100.00;-19455.00;5022582;28;20124;-67
2021/09/14 01:02:08;;;;;;;42.87;11.17;;;;;;;11.14;100.00;-19457.09;5019358;28;20108;-67
2021/09/14 01:04:34;;;;;;;35.30;10.97;;;;;;;11.18;100.00;-19457.88;5020222;28;20151;-67
2021/09/14 01:07:01;;;;;;;34.40;10.27;;;;;;;11.22;100.00;-19459.06;5022345;28;20048;-67
2021/09/14 01:09:30;;;;;;;35.67;10.63;;;;;;;11.24;100.00;-19459.59;5022206;28;20033;-67
2021/09/14 01:11:56;;;;;;;37.67;10.40;;;;;;;11.24;100.00;-19459.59;5015104;28;20057;-67
2021/09/14 01:14:22;;;;;;;32.00;10.20;;;;;;;11.29;100.00;-19460.78;5054540;22;20172;-70
2021/09/14 01:16:47;;;;;;;33.67;10.67;;;;;;;11.30;100.00;-19461.03;5032343;28;20075;-70
2021/09/14 01:19:13;;;;;;;30.57;9.40;;;;;;;11.34;100.00;-19462.22;5037156;28;20052;-70
2021/09/14 01:21:39;;;;;;;27.30;9.87;;;;;;;11.41;100.00;-19463.94;5029472;28;20501;-70
2021/09/14 01:24:05;;;;;;;27.83;10.07;;;;;;;11.37;100.00;-19462.88;5022077;28;20029;-70
2021/09/14 01:26:31;;;;;;;26.83;9.93;;;;;;;11.39;100.00;-19463.41;5031443;28;20040;-70
2021/09/14 01:28:57;;;;;;;26.47;8.90;;;;;;;11.48;100.00;-19465.63;5026417;28;20020;-70
2021/09/14 01:31:23;;;;;;;23.53;8.90;;;;;;;11.46;100.00;-19465.25;5031700;28;20037;-70
2021/09/14 01:33:50;;;;;;;25.03;9.50;;;;;;;11.47;100.00;-19465.50;5022194;28;20259;-70
2021/09/14 01:36:17;;;;;;;24.30;9.37;;;;;;;11.43;100.00;-19464.59;5028101;28;20229;-70
2021/09/14 01:38:43;;;;;;;24.47;8.70;;;;;;;11.46;100.00;-19465.25;5033124;28;20060;-70
2021/09/14 01:41:09;;;;;;;26.40;8.83;;;;;;;11.43;100.00;-19464.47;5025187;28;20033;-70
2021/09/14 01:43:35;;;;;;;21.50;8.43;;;;;;;11.42;100.00;-19464.19;5021437;28;20421;-70
2021/09/14 01:46:02;;;;;;;25.50;8.83;;;;;;;11.44;100.00;-19464.72;5023275;28;21236;-70
2021/09/14 01:48:28;;;;;;;24.60;9.03;;;;;;;11.47;100.00;-19465.50;5022818;28;20093;-70
2021/09/14 01:50:54;;;;;;;19.93;8.80;;;;;;;11.43;100.00;-19464.59;5037705;28;20124;-70
2021/09/14 01:53:21;;;;;;;21.80;8.90;;;;;;;11.46;100.00;-19465.25;5025017;28;20047;-70
2021/09/14 01:55:46;;;;;;;20.23;8.43;;;;;;;11.42;100.00;-19464.19;5032586;28;20063;-70
2021/09/14 01:58:12;;;;;;;22.53;8.80;;;;;;;11.42;100.00;-19464.19;5040628;28;20213;-70
2021/09/14 02:00:43;;;;;;;25.10;8.50;;;;;;;11.44;100.00;-19464.72;5041060;28;20584;-70
2021/09/14 02:03:24;;;;;;;21.13;8.60;;;;;;;11.36;100.00;-19462.63;5022463;28;20025;-70
2021/09/14 02:33:53;;;;;;;35.50;11.40;;;;;;;11.08;100.00;-19455.53;4999011;28;20042;-70
2021/09/14 02:39:22;;;;;;;38.57;12.30;;;;;;;10.97;100.00;-19452.63;5013680;28;20056;-70
2021/09/14 02:58:40;;;;;;;42.27;12.67;;;;;;;11.13;100.00;-19456.84;4957959;28;20519;-70
2021/09/14 03:01:08;;;;;;;42.07;12.83;;;;;;;11.02;100.00;-19453.94;4958750;28;20467;-70
2021/09/14 03:03:38;;;;;;;44.60;12.30;;;;;;;11.10;100.00;-19456.03;4960575;28;20037;-70
2021/09/14 03:06:03;;;;;;;48.53;13.73;;;;;;;11.21;100.00;-19458.69;4965767;28;20038;-70
2021/09/14 03:08:29;;;;;;;44.17;12.17;;;;;;;11.23;100.00;-19459.19;4978323;28;20042;-70
2021/09/14 03:10:59;;;;;;;43.77;12.70;;;;;;;11.23;100.00;-19459.34;4966446;28;20061;-70
2021/09/14 03:13:26;;;;;;;50.47;13.77;;;;;;;11.28;100.00;-19460.66;4977676;28;20133;-70
2021/09/14 03:15:52;;;;;;;43.67;13.07;;;;;;;11.30;100.00;-19461.03;4966516;28;20202;-70
2021/09/14 03:18:17;;;;;;;43.73;13.10;;;;;;;11.25;100.00;-19459.84;4977516;28;20144;-70
2021/09/14 03:20:43;;;;;;;52.17;14.50;;;;;;;11.28;100.00;-19460.50;4967487;28;20236;-70
2021/09/14 03:23:08;;;;;;;49.43;12.73;;;;;;;11.26;100.00;-19460.00;4976652;28;20331;-70
2021/09/14 03:25:34;;;;;;;41.83;13.00;;;;;;;11.24;100.00;-19459.59;4968808;28;20392;-70
2021/09/14 03:27:59;;;;;;;44.13;13.40;;;;;;;11.22;100.00;-19459.06;5012100;28;20075;-70
2021/09/14 03:30:25;;;;;;;46.20;13.90;;;;;;;11.17;100.00;-19457.63;5027864;28;20281;-70
2021/09/14 03:32:50;;;;;;;45.33;14.20;;;;;;;11.15;100.00;-19457.38;5021223;28;20490;-70
2021/09/14 03:35:16;;;;;;;51.83;13.53;;;;;;;11.14;100.00;-19457.09;5027514;28;20033;-70
2021/09/14 03:37:41;;;;;;;43.40;12.90;;;;;;;11.15;100.00;-19457.38;5021798;28;20601;-70
2021/09/14 03:40:08;;;;;;;47.20;13.47;;;;;;;11.18;100.00;-19458.03;5025265;28;20236;-70
2021/09/14 03:42:33;;;;;;;43.83;13.10;;;;;;;11.15;100.00;-19457.38;5022671;28;20521;-70
2021/09/14 03:44:59;;;;;;;47.37;12.97;;;;;;;11.11;100.00;-19456.31;5025207;28;20280;-70
2021/09/14 03:47:24;;;;;;;43.43;13.13;;;;;;;11.11;100.00;-19456.31;5023887;28;20075;-70
2021/09/14 03:49:50;;;;;;;43.90;13.47;;;;;;;11.04;100.00;-19454.47;5026890;28;20037;-70
2021/09/14 03:52:15;;;;;;;43.13;13.40;;;;;;;10.97;100.00;-19452.50;5020698;28;20029;-71
2021/09/14 03:54:41;;;;;;;42.73;13.27;;;;;;;10.92;100.00;-19451.31;5020714;28;20060;-70
2021/09/14 03:57:06;;;;;;;44.63;13.43;;;;;;;10.93;100.00;-19451.56;5030023;28;20033;-70
2021/09/14 03:59:35;;;;;;;49.13;13.27;;;;;;;10.96;100.00;-19452.38;5019801;28;20176;-70
2021/09/14 04:02:00;;;;;;;46.53;13.13;;;;;;;11.01;100.00;-19453.69;5019737;28;20036;-70
2021/09/14 04:04:46;;;;;;;45.83;13.90;;;;;;;11.00;100.00;-19453.41;5031798;28;20445;-70
2021/09/14 04:07:23;;;;;;;49.30;14.20;;;;;;;11.02;100.00;-19453.94;5019448;28;20498;-70
2021/09/14 04:09:50;;;;;;;52.40;14.40;;;;;;;11.04;100.00;-19454.47;5030018;28;20123;-70
2021/09/14 04:12:15;;;;;;;48.67;13.50;;;;;;;11.09;100.00;-19455.78;5032854;28;20337;-70
2021/09/14 04:14:41;;;;;;;46.97;13.83;;;;;;;11.12;100.00;-19456.56;5027711;28;20096;-70
2021/09/14 04:17:06;;;;;;;45.97;14.00;;;;;;;11.09;100.00;-19455.66;5034072;28;20295;-70
2021/09/14 04:19:32;;;;;;;38.13;12.67;;;;;;;11.09;100.00;-19455.78;5027074;28;20411;-71
2021/09/14 04:21:57;;;;;;;42.13;12.63;;;;;;;11.09;100.00;-19455.66;5034137;28;20099;-70
2021/09/14 04:24:23;;;;;;;48.23;13.83;;;;;;;11.05;100.00;-19454.72;5025804;28;20124;-70
2021/09/14 04:26:48;;;;;;;46.47;13.43;;;;;;;11.04;100.00;-19454.47;5033642;28;20032;-70
2021/09/14 04:29:14;;;;;;;42.80;13.43;;;;;;;11.01;100.00;-19453.53;5025442;28;20060;-70
2021/09/14 04:31:39;;;;;;;49.67;13.17;;;;;;;11.04;100.00;-19454.34;5033630;28;20028;-70
2021/09/14 04:34:05;;;;;;;47.17;13.40;;;;;;;11.07;100.00;-19455.13;5026013;28;20108;-70
2021/09/14 04:36:30;;;;;;;41.30;12.73;;;;;;;11.08;100.00;-19455.53;5032409;28;20049;-70
2021/09/14 04:38:56;;;;;;;44.63;13.10;;;;;;;11.08;100.00;-19455.38;5026194;28;20057;-70
2021/09/14 04:41:21;;;;;;;52.50;13.10;;;;;;;11.11;100.00;-19456.19;5032636;28;20268;-70
2021/09/14 04:43:47;;;;;;;50.53;13.27;;;;;;;11.16;100.00;-19457.50;5025657;28;20034;-70
2021/09/14 04:46:12;;;;;;;46.90;12.57;;;;;;;11.18;100.00;-19458.03;5031235;28;20056;-71
2021/09/14 04:48:38;;;;;;;45.63;13.33;;;;;;;11.19;100.00;-19458.16;5026610;28;20029;-70
2021/09/14 04:51:03;;;;;;;40.53;13.13;;;;;;;11.19;100.00;-19458.28;5034845;28;20484;-70
2021/09/14 04:53:29;;;;;;;41.33;13.17;;;;;;;11.24;100.00;-19459.47;5025847;28;20252;-70
2021/09/14 04:55:54;;;;;;;44.50;13.77;;;;;;;11.20;100.00;-19458.41;5038300;28;20531;-71
2021/09/14 04:58:20;;;;;;;44.97;13.77;;;;;;;11.17;100.00;-19457.75;5027048;28;20029;-70
2021/09/14 05:00:45;;;;;;;45.10;13.80;;;;;;;11.20;100.00;-19458.41;5035491;28;20480;-70
2021/09/14 05:03:12;;;;;;;46.83;14.70;;;;;;;11.17;100.00;-19457.63;5030890;28;20104;-70
2021/09/14 05:05:37;;;;;;;47.77;13.50;;;;;;;11.13;100.00;-19456.84;5025888;28;20433;-70
2021/09/14 05:08:03;;;;;;;42.60;13.57;;;;;;;11.11;100.00;-19456.19;5028481;28;20087;-70
2021/09/14 05:10:29;;;;;;;40.17;13.20;;;;;;;11.10;100.00;-19456.03;5033676;28;20033;-70
2021/09/14 05:12:54;;;;;;;45.77;13.00;;;;;;;11.20;100.00;-19458.41;5025025;28;20139;-70
2021/09/14 05:15:20;;;;;;;47.90;13.77;;;;;;;11.21;100.00;-19458.69;5038478;28;20020;-70
2021/09/14 05:17:46;;;;;;;37.83;12.07;;;;;;;11.24;100.00;-19459.47;5028630;28;20224;-70
2021/09/14 05:20:13;;;;;;;40.53;13.83;;;;;;;11.25;100.00;-19459.72;5026103;28;20550;-70
2021/09/14 05:22:40;;;;;;;42.67;12.67;;;;;;;11.35;100.00;-19462.34;5021770;28;20478;-70
2021/09/14 05:25:06;;;;;;;37.77;12.20;;;;;;;11.40;100.00;-19463.66;5025054;28;20486;-70
2021/09/14 05:27:32;;;;;;;37.53;12.57;;;;;;;11.44;100.00;-19464.72;5021453;28;20040;-70
2021/09/14 05:29:57;;;;;;;37.53;12.73;;;;;;;11.47;100.00;-19465.38;5022044;28;20021;-70
2021/09/14 05:32:23;;;;;;;37.50;13.57;;;;;;;11.49;100.00;-19465.91;5021509;28;20121;-70
2021/09/14 05:34:50;;;;;;;33.63;12.63;;;;;;;11.53;100.00;-19467.09;5024061;28;20398;-71
2021/09/14 05:37:17;;;;;;;31.33;11.17;;;;;;;11.51;100.00;-19466.56;5029884;28;20014;-70
2021/09/14 05:39:42;;;;;;;29.10;10.70;;;;;;;11.46;100.00;-19465.25;5035927;28;20017;-70
2021/09/14 05:42:08;;;;;;;28.60;11.37;;;;;;;11.50;100.00;-19466.28;5021774;28;20034;-70
2021/09/14 05:44:35;;;;;;;30.30;11.53;;;;;;;11.61;100.00;-19469.19;5022260;28;20490;-70
2021/09/14 05:47:01;;;;;;;33.77;11.70;;;;;;;11.70;100.00;-19471.56;5023112;28;20625;-70
2021/09/14 05:49:27;;;;;;;28.57;11.67;;;;;;;11.77;100.00;-19473.13;5026413;28;20013;-70
2021/09/14 05:51:52;;;;;;;28.33;10.40;;;;;;;11.81;100.00;-19474.31;5032307;28;20025;-70
2021/09/14 05:54:18;;;;;;;26.97;10.43;;;;;;;11.88;100.00;-19476.03;5027301;28;20045;-70
2021/09/14 05:56:43;;;;;;;23.50;10.13;;;;;;;12.05;100.00;-19480.50;5024929;28;20036;-70
2021/09/14 05:59:09;;;;;;;21.90;10.27;;;;;;;12.45;100.00;-19490.75;5025884;28;20021;-70
2021/09/14 06:01:34;;;;;;;20.63;9.70;;;;;;;12.99;100.00;-19504.78;5029576;28;20518;-70
2021/09/14 06:04:00;;;;;;;16.70;8.13;;;;;;;13.54;100.00;-19518.81;5030383;28;20032;-70
2021/09/14 06:06:25;;;;;;;15.73;7.60;;;;;;;13.92;100.00;-19528.78;5027221;28;20021;-70
2021/09/14 06:08:51;;;;;;;13.73;7.67;;;;;;;14.19;100.00;-19535.59;5021288;28;20267;-70
2021/09/14 06:11:17;;;;;;;12.80;6.87;;;;;;;14.47;100.00;-19542.94;5025413;28;20018;-70
2021/09/14 06:13:43;;;;;;;13.07;6.67;;;;;;;14.72;100.00;-19549.22;5021496;28;20441;-70
2021/09/14 06:16:08;;;;;;;11.60;6.43;;;;;;;15.10;100.00;-19559.16;5025795;28;20044;-70
2021/09/14 06:18:34;;;;;;;12.53;6.37;;;;;;;15.29;100.00;-19564.00;5022929;28;20057;-70
2021/09/14 06:20:59;;;;;;;16.40;6.30;;;;;;;15.47;100.00;-19568.72;5025139;28;20030;-70
2021/09/14 06:23:25;;;;;;;11.07;5.93;;;;;;;15.61;100.00;-19572.13;5020829;28;20104;-70
2021/09/14 06:25:50;;;;;;;11.33;6.73;;;;;;;15.63;100.00;-19572.78;5026000;28;20040;-69
2021/09/14 06:28:16;;;;;;;13.13;6.90;;;;;;;15.72;100.00;-19575.00;5021917;28;20402;-70
2021/09/14 06:30:42;;;;;;;11.40;6.17;;;;;;;15.92;100.00;-19580.09;5027391;28;20391;-70
2021/09/14 06:33:07;;;;;;;12.03;6.53;;;;;;;15.97;100.00;-19581.53;5029841;28;20037;-70
2021/09/14 06:35:35;;;;;;;10.30;5.90;;;;;;;16.18;100.00;-19586.78;5026441;28;20264;-69
2021/09/14 06:38:00;;;;;;;13.03;6.17;;;;;;;16.40;100.00;-19592.66;5023810;28;20032;-69
2021/09/14 06:40:26;;;;;;;13.97;6.03;;;;;;;16.72;100.00;-19600.75;5024694;28;20025;-69
2021/09/14 06:42:51;;;;;;;11.10;6.00;;;;;;;17.05;100.00;-19609.13;5023083;28;20041;-70
2021/09/14 06:45:17;;;;;;;12.33;6.10;;;;;;;16.95;100.00;-19606.63;5026529;28;20095;-69
2021/09/14 06:47:43;;;;;;;12.00;6.27;;;;;;;16.91;100.00;-19605.72;5021130;28;20029;-70
2021/09/14 06:50:08;;;;;;;10.23;5.60;;;;;;;17.03;100.00;-19608.72;5025853;28;20025;-70
2021/09/14 06:52:34;;;;;;;12.77;6.23;;;;;;;17.26;100.00;-19614.72;5022318;28;20063;-69
2021/09/14 06:54:59;;;;;;;12.67;5.83;;;;;;;17.61;100.00;-19623.47;5023666;28;20040;-69
2021/09/14 06:57:25;;;;;;;10.43;4.90;;;;;;;18.00;100.00;-19633.66;5021392;28;20029;-70
2021/09/14 06:59:50;;;;;;;11.87;6.03;;;;;;;18.15;100.00;-19637.56;5023658;28;20509;-70
2021/09/14 07:02:19;;;;;;;10.67;5.67;;;;;;;18.15;100.00;-19637.44;5023111;28;20030;-70
2021/09/14 07:04:45;;;;;;;11.73;5.30;;;;;;;18.54;100.00;-19647.34;5021715;28;20057;-70
2021/09/14 07:07:10;;;;;;;15.90;5.50;;;;;;;18.53;100.00;-19647.06;5023020;28;20166;-70
2021/09/14 07:09:40;;;;;;;10.85;5.22;;;;;;;18.65;100.00;-19650.34;5021535;28;20203;-70
2021/09/14 07:12:06;;;;;;;9.93;5.13;;;;;;;18.71;100.00;-19651.78;5023917;28;20391;-70
2021/09/14 07:14:31;;;;;;;9.70;5.18;;;;;;;18.86;100.00;-19655.53;5028566;28;20052;-70
2021/09/14 07:16:57;;;;;;;10.02;5.28;;;;;;;18.84;100.00;-19655.16;5022131;28;20036;-70
2021/09/14 07:19:22;;;;;;;9.32;4.95;;;;;;;18.69;100.00;-19651.25;5020385;28;20045;-70
2021/09/14 07:21:48;;;;;;;11.32;5.65;;;;;;;18.83;100.00;-19654.75;5021448;28;20301;-70
2021/09/14 07:24:13;;;;;;;9.20;4.45;;;;;;;18.99;100.00;-19658.94;5020050;28;20045;-70
2021/09/14 07:26:39;;;;;;;10.48;5.38;;;;;;;19.23;100.00;-19665.19;5047755;28;20072;-70
2021/09/14 07:29:06;;;;;;;10.82;5.63;;;;;;;19.24;100.00;-19665.44;5020270;28;20049;-70
2021/09/14 07:31:33;;;;;;;10.25;5.50;;;;;;;19.48;100.00;-19671.44;5020510;28;20155;-70
2021/09/14 07:33:58;;;;;;;9.73;4.85;;;;;;;19.82;100.00;-19680.28;5020073;28;20057;-69
2021/09/14 07:36:23;;;;;;;10.60;5.10;;;;;;;20.52;100.00;-19697.97;5031399;28;20075;-69
2021/09/14 07:38:49;;;;;;;11.18;4.72;;;;;;;20.86;100.00;-19706.81;5020280;28;20125;-70
2021/09/14 07:41:14;;;;;;;8.52;4.43;;;;;;;20.08;100.00;-19686.78;5032447;28;20037;-70
2021/09/14 07:43:40;;;;;;;8.18;4.20;;;;;;;20.47;100.00;-19696.94;5019981;28;20044;-70
2021/09/14 07:46:09;;;;;;;9.05;4.85;;;;;;;20.82;100.00;-19705.75;5028769;28;20033;-69
2021/09/14 07:48:35;;;;;;;9.00;4.78;;;;;;;20.87;100.00;-19707.06;5032130;28;20297;-70
2021/09/14 07:51:01;;;;;;;8.50;5.10;;;;;;;21.16;100.00;-19714.47;5027635;28;20532;-69
2021/09/14 07:53:26;;;;;;;8.75;4.00;;;;;;;21.11;100.00;-19713.03;5020522;28;20116;-69
2021/09/14 07:55:52;;;;;;;9.13;4.90;;;;;;;21.33;100.00;-19718.75;5026677;28;20457;-69
2021/09/14 07:58:17;;;;;;;8.95;4.70;;;;;;;21.71;100.00;-19728.34;5024776;28;20029;-69
2021/09/14 08:00:43;;;;;;;9.55;4.47;;;;;;;21.43;100.00;-19721.34;5030516;28;20396;-69
2021/09/14 08:03:08;;;;;;;11.55;5.18;;;;;;;21.55;100.00;-19724.47;5021327;28;20029;-70
2021/09/14 08:05:38;;;;;;;8.00;4.28;;;;;;;21.91;100.00;-19733.66;5021089;28;20442;-70
2021/09/14 08:08:03;;;;;;;9.27;4.25;;;;;;;22.38;100.00;-19745.47;5022882;28;20406;-70
2021/09/14 08:10:29;;;;;;;9.52;4.50;;;;;;;23.15;100.00;-19765.19;5025925;28;20037;-70
2021/09/14 08:12:54;;;;;;;6.78;4.13;;;;;;;22.93;100.00;-19759.47;5024558;28;20084;-70
2021/09/14 08:15:20;;;;;;;9.98;3.20;;;;;;;22.68;100.00;-19753.25;5023804;28;20043;-70
2021/09/14 08:17:45;;;;;;;9.60;4.30;;;;;;;22.51;100.00;-19748.97;5019541;28;20459;-70
2021/09/14 08:20:15;;;;;;;8.25;3.33;;;;;;;22.40;100.00;-19746.00;5021258;28;20060;-70
2021/09/14 08:22:41;;;;;;;8.75;3.60;;;;;;;22.86;100.00;-19757.66;5019851;28;20200;-70
2021/09/14 08:25:07;;;;;;;7.80;3.53;;;;;;;22.62;100.00;-19751.69;5020749;28;20041;-70
2021/09/14 08:27:33;;;;;;;6.47;3.42;;;;;;;22.48;100.00;-19748.06;5020235;28;20021;-70
2021/09/14 08:29:59;;;;;;;7.03;3.58;;;;;;;22.54;100.00;-19749.50;5025946;28;20025;-70
2021/09/14 08:32:24;;;;;;;6.57;3.55;;;;;;;22.76;100.00;-19755.19;5030259;28;20429;-70
2021/09/14 08:34:50;;;;;;;6.43;3.63;;;;;;;23.38;100.00;-19771.13;5030060;28;20265;-70
2021/09/14 08:37:15;;;;;;;6.82;3.28;;;;;;;23.25;100.00;-19767.75;5020109;28;20029;-70
2021/09/14 08:39:41;;;;;;;13.07;4.20;;;;;;;23.05;100.00;-19762.72;5021854;28;20030;-70
2021/09/14 08:42:07;;;;;;;6.05;3.17;;;;;;;23.15;100.00;-19765.19;5021448;28;20029;-70
2021/09/14 08:44:36;;;;;;;6.78;3.08;;;;;;;23.28;100.00;-19768.53;5024953;28;20181;-70
2021/09/14 08:47:03;;;;;;;6.13;3.25;;;;;;;22.99;100.00;-19761.03;5029533;28;20025;-70
2021/09/14 08:49:29;;;;;;;6.18;3.30;;;;;;;23.07;100.00;-19763.09;5034450;28;20029;-70
2021/09/14 08:51:55;;;;;;;6.25;3.20;;;;;;;23.34;100.00;-19770.09;5023695;28;20037;-70
2021/09/14 08:54:21;;;;;;;5.93;3.30;;;;;;;23.21;100.00;-19766.72;5025005;28;20449;-70
2021/09/14 08:56:47;;;;;;;5.60;3.00;;;;;;;23.15;100.00;-19765.03;5039217;28;20032;-71
2021/09/14 08:59:26;;;;;;;6.20;3.22;;;;;;;23.65;100.00;-19778.00;5031278;28;20120;-70
2021/09/14 09:02:05;;;;;;;6.15;3.20;;;;;;;24.32;100.00;-19794.94;5039997;28;20219;-69
2021/09/14 09:04:31;;;;;;;6.10;3.15;;;;;;;24.98;100.00;-19811.59;5023864;28;20067;-70
2021/09/14 09:06:57;;;;;;;7.90;3.63;;;;;;;24.76;100.00;-19806.19;5028877;28;20523;-70
2021/09/14 09:09:26;;;;;;;10.05;3.33;;;;;;;24.20;100.00;-19791.97;5022161;28;20030;-70
2021/09/14 09:12:08;;;;;;;6.43;3.05;;;;;;;24.52;100.00;-19800.09;5027131;28;20115;-70
2021/09/14 09:14:40;;;;;;;5.63;3.17;;;;;;;24.57;100.00;-19801.13;5023163;28;20076;-70
2021/09/14 09:17:16;;;;;;;6.47;3.67;;;;;;;24.78;100.00;-19806.69;5027535;28;20029;-70
2021/09/14 09:19:54;;;;;;;7.65;3.60;;;;;;;24.54;100.00;-19800.50;5024649;28;20481;-70
2021/09/14 09:22:23;;;;;;;6.63;3.53;;;;;;;25.04;100.00;-19813.16;5022763;28;20514;-70
2021/09/14 09:24:54;;;;;;;6.28;3.38;;;;;;;24.83;100.00;-19807.84;5023264;28;20324;-70
2021/09/14 09:27:23;;;;;;;8.05;4.05;;;;;;;24.01;100.00;-19786.91;5022236;28;20056;-71
2021/09/14 09:30:08;;;;;;;7.55;3.42;;;;;;;24.11;100.00;-19789.50;5024598;28;20693;-70
2021/09/14 09:32:47;;;;;;;8.38;4.13;;;;;;;24.22;100.00;-19792.34;5023687;28;20307;-70
2021/09/14 09:35:25;;;;;;;5.82;3.40;;;;;;;24.73;100.00;-19805.28;5024596;28;20025;-71
2021/09/14 09:37:51;;;;;;;6.60;3.80;;;;;;;24.25;100.00;-19793.13;5040679;28;20024;-70
2021/09/14 09:40:32;;;;;;;5.97;3.60;;;;;;;24.42;100.00;-19797.53;5034835;28;20513;-70
2021/09/14 09:42:59;;;;;;;9.95;3.53;;;;;;;24.58;100.00;-19801.41;5030519;28;20033;-69
2021/09/14 09:45:26;;;;;;;7.07;3.55;;;;;;;24.31;100.00;-19794.69;5032591;28;20052;-70
2021/09/14 09:47:51;;;;;;;6.28;3.38;;;;;;;24.43;100.00;-19797.66;5022926;28;20037;-70
2021/09/14 09:50:17;;;;;;;7.53;3.70;;;;;;;24.57;100.00;-19801.28;5025450;28;20025;-70
2021/09/14 09:52:44;;;;;;;6.88;3.78;;;;;;;24.11;100.00;-19789.50;5029263;28;20045;-70
2021/09/14 09:55:11;;;;;;;9.27;4.50;;;;;;;24.13;100.00;-19790.16;5022715;28;20026;-69
2021/09/14 09:57:37;;;;;;;5.88;3.53;;;;;;;24.02;100.00;-19787.19;5027323;28;20059;-69
2021/09/14 10:00:08;;;;;;;7.63;3.88;;;;;;;24.00;100.00;-19786.78;5026286;28;20052;-70
2021/09/14 10:02:38;;;;;;;7.07;4.28;;;;;;;24.01;100.00;-19787.06;5021300;28;20302;-70
2021/09/14 10:05:07;;;;;;;7.32;4.05;;;;;;;23.93;100.00;-19785.09;5021628;28;20159;-70
2021/09/14 10:07:34;;;;;;;6.55;3.80;;;;;;;23.81;100.00;-19782.00;5021779;28;20037;-70
2021/09/14 10:10:03;;;;;;;7.97;3.70;;;;;;;23.86;100.00;-19783.28;5024401;28;20273;-70
2021/09/14 10:12:30;;;;;;;8.05;3.78;;;;;;;23.80;100.00;-19781.75;5021277;28;20033;-69
2021/09/14 10:15:12;;;;;;;8.50;4.32;;;;;;;23.13;100.00;-19764.66;5024595;28;20539;-70
2021/09/14 10:17:48;;;;;;;;;;;;;;;22.10;100.00;-19738.47;5021806;28;20044;-70
2021/09/14 10:20:15;;;;;;;6.32;3.95;;;;;;;21.57;100.00;-19724.97;5023983;28;20542;-70
2021/09/14 10:22:40;;;;;;;7.00;4.35;;;;;;;21.37;100.00;-19719.78;5023117;28;20242;-70
2021/09/14 10:25:08;;;;;;;9.88;4.28;;;;;;;21.05;100.00;-19711.72;5020979;28;20111;-69
2021/09/14 10:27:43;;;;;;;8.18;4.15;;;;;;;21.13;100.00;-19713.69;5024507;28;20052;-70
2021/09/14 10:30:13;;;;;;;8.00;4.68;;;;;;;21.00;100.00;-19710.44;5034313;28;20150;-70
2021/09/14 10:32:43;;;;;;;11.23;4.45;;;;;;;21.05;100.00;-19711.72;5021165;28;20033;-69
2021/09/14 10:35:11;;;;;;;7.70;4.47;;;;;;;21.18;100.00;-19714.84;5031317;28;20276;-70
2021/09/14 10:37:37;;;;;;;7.05;4.57;;;;;;;21.46;100.00;-19722.13;5030373;28;20440;-70
2021/09/14 10:42:42;;;;;;;9.25;4.35;;;;;;;21.61;100.00;-19726.03;5021600;28;20071;-69
2021/09/14 10:45:10;;;;;;;7.30;3.85;;;;;;;21.68;100.00;-19727.56;5022800;28;20378;-69
2021/09/14 10:47:38;;;;;;;11.07;4.55;;;;;;;21.88;100.00;-19732.75;5029579;28;20421;-69
2021/09/14 10:50:05;;;;;;;7.88;4.53;;;;;;;21.68;100.00;-19727.56;5022721;28;20037;-69
2021/09/14 10:52:37;;;;;;;7.28;4.32;;;;;;;21.64;100.00;-19726.66;5021017;28;20049;-70
2021/09/14 10:55:13;;;;;;;6.20;3.77;;;;;;;21.59;100.00;-19725.50;5029444;28;20029;-69
2021/09/14 10:57:42;;;;;;;6.00;4.07;;;;;;;21.71;100.00;-19728.34;5026472;28;20086;-69
2021/09/14 11:00:13;;;;;;;9.48;4.20;;;;;;;21.66;100.00;-19727.19;5030084;28;20033;-69
2021/09/14 11:02:39;;;;;;;7.85;4.82;;;;;;;21.64;100.00;-19726.66;5020216;28;20021;-70
2021/09/14 11:05:06;;;;;;;9.27;5.30;;;;;;;21.62;100.00;-19726.16;5026513;28;20087;-69
2021/09/14 11:07:32;;;;;;;7.38;4.60;;;;;;;21.54;100.00;-19724.19;5021385;28;20408;-69
2021/09/14 11:10:07;;;;;;;7.25;4.53;;;;;;;21.71;100.00;-19728.34;5024589;28;20170;-69
2021/09/14 11:12:33;;;;;;;7.10;4.43;;;;;;;21.89;100.00;-19733.03;5020117;28;20087;-69
2021/09/14 11:14:59;;;;;;;13.25;4.90;;;;;;;21.79;100.00;-19730.44;5023044;28;20045;-69
2021/09/14 11:17:36;;;;;;;9.00;4.35;;;;;;;21.77;100.00;-19729.91;5023657;28;20506;-69
2021/09/14 11:20:15;;;;;;;7.88;4.43;;;;;;;21.91;100.00;-19733.53;5022694;28;20421;-69
2021/09/14 11:22:42;;;;;;;8.85;4.90;;;;;;;21.81;100.00;-19730.94;5020171;28;20052;-70
2021/09/14 11:25:16;;;;;;;9.45;4.70;;;;;;;21.71;100.00;-19728.34;5021852;28;20044;-69
2021/09/14 11:28:03;;;;;;;7.00;4.25;;;;;;;21.70;100.00;-19728.09;5024292;28;20278;-70
2021/09/14 11:30:31;;;;;;;7.82;4.50;;;;;;;21.55;100.00;-19724.34;5021277;28;20025;-70
2021/09/14 11:32:59;;;;;;;8.13;4.75;;;;;;;21.71;100.00;-19728.50;5019958;28;20334;-69
2021/09/14 11:35:27;;;;;;;6.85;4.45;;;;;;;21.91;100.00;-19733.53;5024786;28;20477;-69
2021/09/14 11:38:12;;;;;;;11.77;4.82;;;;;;;21.87;100.00;-19732.50;5020187;28;20085;-70
2021/09/14 11:40:46;;;;;;;8.07;4.57;;;;;;;21.97;100.00;-19734.97;5020191;28;20295;-70
2021/09/14 11:43:20;;;;;;;7.38;4.35;;;;;;;22.36;100.00;-19744.97;5031724;28;20417;-70
2021/09/14 11:45:47;;;;;;;9.75;5.10;;;;;;;22.52;100.00;-19749.09;5027506;28;20095;-70
2021/09/14 11:48:21;;;;;;;7.15;4.43;;;;;;;22.92;100.00;-19759.22;5020012;28;20060;-70
2021/09/14 11:50:48;;;;;;;7.70;4.68;;;;;;;22.83;100.00;-19757.00;5022278;28;20183;-70
2021/09/14 11:53:19;;;;;;;7.45;4.57;;;;;;;22.95;100.00;-19760.00;5021234;28;20459;-70
2021/09/14 11:55:50;;;;;;;8.70;4.72;;;;;;;23.21;100.00;-19766.59;5026367;28;20336;-70
2021/09/14 11:58:31;;;;;;;7.03;4.57;;;;;;;23.43;100.00;-19772.28;5022314;28;20025;-70
2021/09/14 12:01:01;;;;;;;9.30;4.50;;;;;;;23.14;100.00;-19764.78;5025235;28;20045;-70